Time;durP1;ratioP1;P1;durP2;ratioP2;P2;SDS_P1;SDS_P2;PMS_P1;PMS_P2;Temp;Humidity;BMP_temperature;BMP_pressure;BME280_temperature;BME280_humidity;BME280_pressure;Samples;Min_cycle;Max_cycle;Signal;HPM_P1;HPM_P2
2022/11/20 00:01:43;;;;;;;11.98;6.00;;;19.00;59.80;;;;;;4919279;29;20039;-75
2022/11/20 00:04:11;;;;;;;10.13;5.90;;;19.00;59.80;;;;;;4905234;29;20036;-73
2022/11/20 00:06:37;;;;;;;9.02;5.53;;;19.00;59.80;;;;;;4895420;29;20169;-71
2022/11/20 00:09:02;;;;;;;10.48;5.82;;;19.00;59.80;;;;;;4902525;29;20044;-72
2022/11/20 00:11:29;;;;;;;8.95;5.68;;;19.10;59.80;;;;;;4885347;29;20086;-72
2022/11/20 00:13:57;;;;;;;9.02;5.47;;;19.00;59.60;;;;;;4921839;29;20050;-73
2022/11/20 00:16:24;;;;;;;7.88;5.47;;;19.10;59.60;;;;;;4905628;29;20444;-72
2022/11/20 00:18:50;;;;;;;10.05;5.47;;;19.00;59.50;;;;;;4888300;29;20054;-72
2022/11/20 00:21:20;;;;;;;10.40;6.03;;;19.00;59.50;;;;;;4922677;29;20051;-73
2022/11/20 00:23:46;;;;;;;9.77;5.82;;;19.00;59.50;;;;;;4895432;29;20044;-72
2022/11/20 00:26:14;;;;;;;9.50;5.25;;;19.00;59.40;;;;;;4915822;29;20114;-72
2022/11/20 00:28:40;;;;;;;10.57;6.05;;;19.00;59.40;;;;;;4886815;29;20149;-72
2022/11/20 00:31:09;;;;;;;7.00;4.72;;;19.00;59.40;;;;;;4922007;29;20638;-72
2022/11/20 00:33:34;;;;;;;8.27;5.25;;;19.00;59.40;;;;;;4916497;29;20120;-73
2022/11/20 00:36:09;;;;;;;7.88;5.18;;;18.90;59.30;;;;;;4903918;29;20138;-72
2022/11/20 00:38:35;;;;;;;8.73;4.95;;;18.90;59.30;;;;;;4919057;29;20071;-72
2022/11/20 00:41:03;;;;;;;9.30;5.50;;;18.90;59.30;;;;;;4888500;29;20135;-73
2022/11/20 00:43:28;;;;;;;7.85;4.88;;;18.90;59.30;;;;;;4920677;29;20040;-72
2022/11/20 00:46:02;;;;;;;7.25;4.75;;;18.90;59.30;;;;;;4902203;29;20043;-72
2022/11/20 00:48:28;;;;;;;7.05;4.68;;;18.90;59.30;;;;;;4921006;29;20123;-72
2022/11/20 00:50:54;;;;;;;7.30;5.07;;;18.90;59.30;;;;;;4921924;29;20122;-73
2022/11/20 00:53:20;;;;;;;9.73;5.22;;;18.90;59.30;;;;;;4904548;29;20051;-72
2022/11/20 00:56:03;;;;;;;7.00;5.07;;;18.90;59.30;;;;;;4923436;29;21102;-72
2022/11/20 00:58:34;;;;;;;8.55;5.35;;;18.80;59.20;;;;;;4898592;29;20050;-72
2022/11/20 01:01:21;;;;;;;10.02;5.10;;;18.80;59.20;;;;;;4906249;29;20153;-73
2022/11/20 01:03:49;;;;;;;7.60;4.60;;;18.80;59.10;;;;;;4894667;29;20044;-72
2022/11/20 01:06:17;;;;;;;7.55;4.82;;;18.80;59.10;;;;;;4907750;29;20598;-73
2022/11/20 01:08:44;;;;;;;6.57;4.45;;;18.90;59.30;;;;;;4903028;29;20400;-72
2022/11/20 01:11:12;;;;;;;7.70;4.72;;;18.80;59.20;;;;;;4923890;29;20032;-72
2022/11/20 01:13:39;;;;;;;;;;;18.80;59.20;;;;;;4922062;29;20036;-72
2022/11/20 01:16:11;;;;;;;6.75;4.50;;;18.80;59.00;;;;;;4923197;29;19970;-72
2022/11/20 01:18:39;;;;;;;7.32;4.80;;;18.80;59.10;;;;;;4905013;29;20480;-71
2022/11/20 01:21:08;;;;;;;6.63;4.30;;;18.80;59.10;;;;;;4907009;29;20047;-72
2022/11/20 01:23:36;;;;;;;9.85;5.15;;;18.80;59.00;;;;;;4922774;29;20598;-72
2022/11/20 01:26:03;;;;;;;7.18;4.30;;;18.80;59.00;;;;;;4907734;29;20062;-72
2022/11/20 01:28:29;;;;;;;7.47;4.70;;;18.80;59.00;;;;;;4923677;29;20054;-72
2022/11/20 01:30:54;;;;;;;6.85;4.50;;;18.70;59.10;;;;;;4908846;29;20036;-73
2022/11/20 01:33:20;;;;;;;5.97;4.68;;;18.80;59.00;;;;;;4906803;29;20048;-72
2022/11/20 01:35:46;;;;;;;6.47;4.22;;;18.70;59.00;;;;;;4924094;29;20507;-72
2022/11/20 01:38:11;;;;;;;8.30;4.28;;;18.70;59.00;;;;;;4899370;29;20039;-73
2022/11/20 01:40:37;;;;;;;6.13;4.13;;;18.70;59.00;;;;;;4899048;29;20044;-72
2022/11/20 01:43:21;;;;;;;7.10;4.13;;;18.70;59.00;;;;;;4919859;29;20031;-73
2022/11/20 01:45:50;;;;;;;7.65;4.30;;;18.70;59.00;;;;;;4905900;29;20566;-73
2022/11/20 01:48:17;;;;;;;5.32;3.70;;;18.70;59.00;;;;;;4906569;29;20851;-72
2022/11/20 01:50:44;;;;;;;6.97;4.50;;;18.70;59.00;;;;;;4905532;29;20416;-74
2022/11/20 01:53:14;;;;;;;6.18;4.20;;;18.70;59.00;;;;;;4887617;29;20051;-73
2022/11/20 01:55:45;;;;;;;7.20;3.90;;;18.70;59.00;;;;;;4904161;29;20055;-73
2022/11/20 01:58:12;;;;;;;6.35;4.07;;;18.70;59.00;;;;;;4922388;29;20724;-73
2022/11/20 02:00:38;;;;;;;10.60;4.07;;;18.60;58.90;;;;;;4922223;29;20095;-73
2022/11/20 02:03:13;;;;;;;6.55;3.85;;;18.60;58.90;;;;;;4924437;29;20487;-73
2022/11/20 02:05:52;;;;;;;5.28;3.67;;;18.70;58.80;;;;;;4920920;29;20040;-73
2022/11/20 02:08:19;;;;;;;5.72;3.90;;;18.70;58.80;;;;;;4902773;29;20063;-74
2022/11/20 02:10:45;;;;;;;8.02;3.85;;;18.60;58.70;;;;;;4908471;29;20052;-73
2022/11/20 02:15:55;;;;;;;5.30;3.75;;;18.60;58.70;;;;;;4906359;29;20177;-73
2022/11/20 02:18:21;;;;;;;5.68;3.92;;;18.60;58.60;;;;;;4908617;29;20445;-73
2022/11/20 02:20:51;;;;;;;5.15;3.50;;;18.60;58.60;;;;;;4907075;29;21345;-73
2022/11/20 02:23:24;;;;;;;5.38;3.70;;;18.70;58.60;;;;;;4906344;29;20092;-74
2022/11/20 02:25:51;;;;;;;6.22;3.78;;;18.60;58.50;;;;;;4906636;29;20051;-74
2022/11/20 02:28:18;;;;;;;4.85;3.65;;;18.60;58.50;;;;;;4897909;29;20055;-73
2022/11/20 02:30:43;;;;;;;6.55;3.70;;;18.60;58.50;;;;;;4910081;29;20040;-73
2022/11/20 02:33:09;;;;;;;4.97;3.47;;;18.60;58.40;;;;;;4898756;29;20043;-73
2022/11/20 02:35:34;;;;;;;5.30;3.67;;;18.60;58.40;;;;;;4901007;29;20135;-74
2022/11/20 02:38:02;;;;;;;7.85;4.00;;;18.60;58.40;;;;;;4920532;29;20134;-72
2022/11/20 02:40:28;;;;;;;5.40;3.40;;;18.60;58.40;;;;;;4924122;29;20067;-74
2022/11/20 02:42:57;;;;;;;6.13;3.50;;;18.60;58.40;;;;;;4917267;29;20395;-74
2022/11/20 02:45:23;;;;;;;4.75;3.40;;;18.60;58.30;;;;;;4905131;29;20054;-74
2022/11/20 02:47:49;;;;;;;5.20;3.88;;;18.60;58.40;;;;;;4917746;29;20118;-76
2022/11/20 02:50:16;;;;;;;7.30;3.83;;;18.50;58.20;;;;;;4906474;29;20861;-73
2022/11/20 02:52:42;;;;;;;6.57;3.80;;;18.60;58.20;;;;;;4920456;29;20523;-73
2022/11/20 02:55:08;;;;;;;5.38;3.40;;;18.60;58.20;;;;;;4922129;29;20065;-73
2022/11/20 02:57:33;;;;;;;5.45;3.33;;;18.60;58.20;;;;;;4904583;29;20047;-72
2022/11/20 02:59:59;;;;;;;5.65;3.40;;;18.60;58.20;;;;;;4917733;29;20047;-73
2022/11/20 03:02:24;;;;;;;5.28;3.40;;;18.60;58.20;;;;;;4923600;29;20126;-74
2022/11/20 03:04:50;;;;;;;4.82;3.72;;;18.60;58.20;;;;;;4919590;29;20046;-73
2022/11/20 03:07:16;;;;;;;5.53;3.13;;;18.50;58.20;;;;;;4922365;29;20060;-73
2022/11/20 03:09:41;;;;;;;4.18;2.90;;;18.50;58.20;;;;;;4905606;29;20126;-72
2022/11/20 03:12:07;;;;;;;3.90;2.95;;;18.50;58.20;;;;;;4918354;29;20067;-73
2022/11/20 03:14:34;;;;;;;4.15;3.30;;;18.50;58.20;;;;;;4902573;29;20048;-73
2022/11/20 03:16:59;;;;;;;5.03;3.13;;;18.50;58.10;;;;;;4920597;29;20048;-73
2022/11/20 03:19:25;;;;;;;4.70;3.17;;;18.50;58.10;;;;;;4906701;29;20058;-73
2022/11/20 03:21:50;;;;;;;6.68;3.33;;;18.50;58.10;;;;;;4902181;29;20051;-72
2022/11/20 03:24:17;;;;;;;4.35;3.15;;;18.50;58.10;;;;;;4917576;29;20718;-72
2022/11/20 03:26:42;;;;;;;5.28;3.20;;;18.50;58.10;;;;;;4900221;29;20040;-73
2022/11/20 03:29:08;;;;;;;3.88;2.90;;;18.50;58.10;;;;;;4922024;29;20404;-73
2022/11/20 03:31:40;;;;;;;4.60;3.17;;;18.50;58.10;;;;;;4904466;29;20656;-73
2022/11/20 03:34:06;;;;;;;3.85;2.72;;;18.50;58.10;;;;;;4903411;29;20055;-73
2022/11/20 03:36:33;;;;;;;4.28;3.13;;;18.50;58.10;;;;;;4900214;29;20126;-73
2022/11/20 03:38:58;;;;;;;4.70;2.80;;;18.50;58.10;;;;;;4919143;29;20047;-73
2022/11/20 03:41:35;;;;;;;4.38;2.88;;;18.50;58.00;;;;;;4901359;29;20558;-73
2022/11/20 03:44:03;;;;;;;4.45;3.00;;;18.50;58.10;;;;;;4921639;29;20052;-73
2022/11/20 03:46:29;;;;;;;4.25;3.20;;;18.40;58.00;;;;;;4903903;29;20099;-73
2022/11/20 03:48:54;;;;;;;4.85;2.97;;;18.40;58.00;;;;;;4902056;29;20055;-73
2022/11/20 03:51:26;;;;;;;5.00;3.08;;;18.40;58.00;;;;;;4900286;29;20044;-73
2022/11/20 03:53:54;;;;;;;4.35;2.90;;;18.40;58.00;;;;;;4903557;29;20712;-72
2022/11/20 03:56:23;;;;;;;4.25;2.70;;;18.40;58.00;;;;;;4899140;29;20048;-74
2022/11/20 03:58:48;;;;;;;6.55;3.05;;;18.40;58.00;;;;;;4916062;29;20039;-74
2022/11/20 04:01:25;;;;;;;4.60;2.90;;;18.40;58.00;;;;;;4900941;29;20102;-73
2022/11/20 04:03:53;;;;;;;4.50;2.60;;;18.40;58.00;;;;;;4909832;29;20059;-73
2022/11/20 04:06:28;;;;;;;4.80;2.95;;;18.40;57.90;;;;;;4920879;29;20068;-73
2022/11/20 04:08:58;;;;;;;4.03;3.10;;;18.40;57.90;;;;;;4900879;29;20079;-73
2022/11/20 04:11:28;;;;;;;3.55;2.45;;;18.40;57.90;;;;;;4915694;29;20055;-73
2022/11/20 04:13:59;;;;;;;4.85;3.10;;;18.40;57.90;;;;;;4916725;29;20119;-73
2022/11/20 04:16:28;;;;;;;3.00;2.50;;;18.40;57.90;;;;;;4905866;29;20063;-73
2022/11/20 04:18:55;;;;;;;4.25;2.78;;;18.40;57.90;;;;;;4901752;29;21150;-73
2022/11/20 04:21:22;;;;;;;4.05;2.80;;;18.40;57.90;;;;;;4919714;29;20507;-73
2022/11/20 04:23:48;;;;;;;5.78;2.60;;;18.40;57.90;;;;;;4894686;29;20052;-73
2022/11/20 04:26:15;;;;;;;3.60;2.60;;;18.40;57.90;;;;;;4897270;29;20040;-72
2022/11/20 04:28:40;;;;;;;3.25;2.70;;;18.40;57.90;;;;;;4903466;29;20152;-73
2022/11/20 04:31:07;;;;;;;3.53;2.55;;;18.40;57.90;;;;;;4923287;29;20039;-73
2022/11/20 04:33:34;;;;;;;3.97;2.78;;;18.40;57.90;;;;;;4892729;29;20096;-73
2022/11/20 04:36:05;;;;;;;3.88;2.67;;;18.30;57.80;;;;;;4906994;29;20829;-73
2022/11/20 04:38:31;;;;;;;5.00;2.60;;;18.40;57.90;;;;;;4908083;29;20051;-73
2022/11/20 04:41:02;;;;;;;3.38;2.45;;;18.30;57.80;;;;;;4924519;29;20035;-73
2022/11/20 04:43:28;;;;;;;3.50;2.45;;;18.40;57.80;;;;;;4890485;29;20043;-72
2022/11/20 04:45:55;;;;;;;3.30;2.33;;;18.40;57.80;;;;;;4923953;29;20082;-73
2022/11/20 04:48:21;;;;;;;3.47;2.50;;;18.40;57.80;;;;;;4923894;29;20048;-73
2022/11/20 04:50:47;;;;;;;3.60;2.40;;;18.30;57.80;;;;;;4905730;29;20475;-73
2022/11/20 04:53:14;;;;;;;3.97;3.00;;;18.40;57.80;;;;;;4906728;29;20142;-73
2022/11/20 04:55:39;;;;;;;3.20;2.42;;;18.30;57.80;;;;;;4907200;29;20054;-72
2022/11/20 04:58:05;;;;;;;3.50;2.60;;;18.30;57.80;;;;;;4921559;29;20043;-73
2022/11/20 05:00:31;;;;;;;2.90;2.22;;;18.30;57.80;;;;;;4907251;29;20131;-72
2022/11/20 05:02:57;;;;;;;3.88;2.38;;;18.30;57.80;;;;;;4908871;29;20036;-73
2022/11/20 05:05:22;;;;;;;2.85;2.28;;;18.30;57.80;;;;;;4921325;29;20048;-73
2022/11/20 05:07:48;;;;;;;3.53;2.45;;;18.30;57.80;;;;;;4922823;29;20062;-73
2022/11/20 05:10:14;;;;;;;3.65;2.55;;;18.30;57.80;;;;;;4922644;29;20098;-72
2022/11/20 05:12:39;;;;;;;3.45;2.38;;;18.30;57.80;;;;;;4921929;29;20595;-72
2022/11/20 05:15:05;;;;;;;2.95;2.03;;;18.30;57.80;;;;;;4921906;29;20048;-73
2022/11/20 05:17:31;;;;;;;3.38;2.25;;;18.30;57.80;;;;;;4904550;29;20048;-74
2022/11/20 05:19:56;;;;;;;2.53;2.10;;;18.30;57.70;;;;;;4924385;29;20135;-74
2022/11/20 05:22:22;;;;;;;3.08;2.20;;;18.30;57.70;;;;;;4904293;29;20126;-74
2022/11/20 05:24:47;;;;;;;3.63;2.40;;;18.30;57.70;;;;;;4923461;29;20051;-74
2022/11/20 05:27:13;;;;;;;2.97;2.20;;;18.30;57.70;;;;;;4902936;29;20056;-72
2022/11/20 05:29:38;;;;;;;4.03;2.40;;;18.30;57.70;;;;;;4907520;29;20052;-73
2022/11/20 05:32:05;;;;;;;4.32;2.55;;;18.30;57.70;;;;;;4904321;29;20043;-73
2022/11/20 05:34:31;;;;;;;3.78;2.28;;;18.30;57.70;;;;;;4921064;29;20054;-73
2022/11/20 05:36:57;;;;;;;2.35;1.95;;;18.30;57.70;;;;;;4907309;29;20110;-74
2022/11/20 05:39:22;;;;;;;2.30;2.08;;;18.30;57.70;;;;;;4904461;29;20138;-72
2022/11/20 05:42:29;;;;;;;2.70;2.10;;;18.30;57.60;;;;;;4918698;29;20067;-73
2022/11/20 05:44:33;;;;;;;3.17;2.30;;;18.30;57.60;;;;;;4920367;29;20048;-73
2022/11/20 05:46:59;;;;;;;2.72;2.17;;;18.30;57.60;;;;;;4922153;29;20119;-72
2022/11/20 05:49:25;;;;;;;3.00;2.55;;;18.30;57.60;;;;;;4901564;29;20083;-74
2022/11/20 05:51:50;;;;;;;4.80;2.30;;;18.30;57.60;;;;;;4905284;29;20127;-73
2022/11/20 05:54:16;;;;;;;3.20;2.20;;;18.30;57.60;;;;;;4901117;29;20061;-72
2022/11/20 05:56:41;;;;;;;3.03;2.47;;;18.30;57.60;;;;;;4901162;29;20135;-72
2022/11/20 05:59:07;;;;;;;3.20;2.30;;;18.30;57.60;;;;;;4917866;29;20823;-73
2022/11/20 06:01:32;;;;;;;3.08;2.30;;;18.30;57.60;;;;;;4901971;29;20043;-73
2022/11/20 06:03:58;;;;;;;3.65;2.22;;;18.30;57.60;;;;;;4898683;29;20040;-73
2022/11/20 06:06:25;;;;;;;2.65;2.17;;;18.20;57.50;;;;;;4921967;29;20039;-73
2022/11/20 06:08:51;;;;;;;2.63;1.85;;;18.30;57.60;;;;;;4903613;29;20047;-73
2022/11/20 06:11:17;;;;;;;2.60;2.03;;;18.30;57.50;;;;;;4918974;29;20059;-73
2022/11/20 06:13:43;;;;;;;2.42;2.08;;;18.30;57.50;;;;;;4904246;29;20040;-73
2022/11/20 06:16:10;;;;;;;3.13;2.25;;;18.30;57.50;;;;;;4901332;29;20147;-72
2022/11/20 06:18:36;;;;;;;3.05;2.35;;;18.20;57.50;;;;;;4917925;29;20074;-73
2022/11/20 06:21:10;;;;;;;2.60;1.90;;;18.30;57.50;;;;;;4906603;29;20487;-73
2022/11/20 06:23:36;;;;;;;2.33;1.90;;;18.30;57.50;;;;;;4896862;29;20104;-72
2022/11/20 06:26:07;;;;;;;2.63;2.20;;;18.30;57.50;;;;;;4921258;29;20047;-72
2022/11/20 06:28:33;;;;;;;2.80;2.10;;;18.20;57.50;;;;;;4891677;29;20086;-73
2022/11/20 06:30:59;;;;;;;3.03;2.30;;;18.30;57.60;;;;;;4925410;29;20968;-73
2022/11/20 06:33:25;;;;;;;2.55;1.95;;;18.30;58.30;;;;;;4890213;29;20170;-73
2022/11/20 06:35:51;;;;;;;2.88;2.03;;;18.30;57.50;;;;;;4905734;29;20059;-72
2022/11/20 06:38:16;;;;;;;2.90;2.13;;;18.30;57.50;;;;;;4906368;29;20055;-73
2022/11/20 06:40:43;;;;;;;2.75;1.92;;;18.20;57.50;;;;;;4907411;29;20671;-73
2022/11/20 06:43:09;;;;;;;3.13;2.00;;;18.30;57.50;;;;;;4916924;29;20048;-73
2022/11/20 06:45:36;;;;;;;3.50;2.08;;;18.20;57.40;;;;;;4920762;29;20066;-73
2022/11/20 06:48:01;;;;;;;2.83;2.15;;;18.30;57.50;;;;;;4921651;29;20044;-73
2022/11/20 06:50:27;;;;;;;2.60;1.98;;;18.30;57.50;;;;;;4901881;29;20071;-72
2022/11/20 06:52:52;;;;;;;2.65;2.00;;;18.30;57.40;;;;;;4920177;29;20039;-73
2022/11/20 06:55:18;;;;;;;3.83;2.05;;;18.30;57.40;;;;;;4904178;29;20044;-71
2022/11/20 06:57:43;;;;;;;2.30;1.73;;;18.30;57.50;;;;;;4902969;29;20035;-71
2022/11/20 07:00:11;;;;;;;8.93;1.95;;;18.20;57.30;;;;;;4919380;29;20158;-71
2022/11/20 07:02:36;;;;;;;2.47;2.00;;;18.30;57.50;;;;;;4902392;29;20044;-70
2022/11/20 07:05:02;;;;;;;3.35;2.15;;;18.30;57.60;;;;;;4921197;29;20047;-71
2022/11/20 07:07:28;;;;;;;4.05;2.13;;;18.30;57.50;;;;;;4895366;29;20059;-71
2022/11/20 07:09:53;;;;;;;2.70;1.85;;;18.20;57.70;;;;;;4899388;29;20039;-71
2022/11/20 07:12:19;;;;;;;4.38;2.03;;;18.20;57.70;;;;;;4915428;29;20079;-71
2022/11/20 07:14:44;;;;;;;12.48;2.40;;;18.10;57.70;;;;;;4899903;29;20096;-71
2022/11/20 07:17:11;;;;;;;4.28;1.90;;;18.10;57.90;;;;;;4915244;29;20052;-73
2022/11/20 07:19:36;;;;;;;6.50;2.10;;;18.10;58.00;;;;;;4886453;29;20520;-72
2022/11/20 07:22:02;;;;;;;3.33;2.20;;;18.10;58.10;;;;;;4882759;29;20095;-72
2022/11/20 07:24:29;;;;;;;2.08;1.80;;;18.10;58.10;;;;;;4903986;29;20055;-71
2022/11/20 07:26:54;;;;;;;4.15;2.20;;;18.10;58.10;;;;;;4883034;29;20055;-73
2022/11/20 07:29:20;;;;;;;4.13;1.80;;;18.10;58.10;;;;;;4873434;29;20636;-71
2022/11/20 07:31:45;;;;;;;3.35;1.95;;;18.10;58.10;;;;;;4907109;29;20965;-72
2022/11/20 07:34:11;;;;;;;4.32;1.90;;;18.10;58.10;;;;;;4889931;29;21233;-71
2022/11/20 07:36:37;;;;;;;2.35;1.90;;;18.10;58.10;;;;;;4884539;29;20705;-71
2022/11/20 07:39:02;;;;;;;2.35;1.77;;;18.10;58.10;;;;;;4886441;29;20415;-71
2022/11/20 07:41:28;;;;;;;2.63;1.92;;;18.10;58.10;;;;;;4894247;29;20106;-72
2022/11/20 07:43:54;;;;;;;2.33;1.88;;;18.10;58.10;;;;;;4921270;29;21143;-69
2022/11/20 07:46:19;;;;;;;3.22;2.30;;;18.20;58.10;;;;;;4901779;29;20062;-70
2022/11/20 07:48:45;;;;;;;3.15;2.08;;;18.20;58.10;;;;;;4928814;29;20054;-70
2022/11/20 07:51:10;;;;;;;6.75;2.22;;;18.20;58.00;;;;;;4887508;29;20107;-71
2022/11/20 07:53:36;;;;;;;4.93;1.90;;;18.20;58.00;;;;;;4923916;29;20062;-71
2022/11/20 07:56:03;;;;;;;3.35;2.13;;;18.20;58.00;;;;;;4901403;29;20044;-70
2022/11/20 07:58:34;;;;;;;3.38;2.05;;;18.20;58.00;;;;;;4903161;29;20048;-70
2022/11/20 08:01:07;;;;;;;3.65;2.90;;;18.30;58.00;;;;;;4901864;29;20138;-70
2022/11/20 08:03:33;;;;;;;2.65;2.03;;;18.30;57.90;;;;;;4916702;29;20044;-70
2022/11/20 08:06:00;;;;;;;2.75;2.13;;;18.30;57.90;;;;;;4901853;29;20152;-70
2022/11/20 08:08:26;;;;;;;5.82;2.10;;;18.30;57.90;;;;;;4905694;29;20059;-70
2022/11/20 08:10:52;;;;;;;2.63;1.90;;;18.30;57.80;;;;;;4922727;29;20067;-70
2022/11/20 08:16:05;;;;;;;6.53;2.10;;;18.30;57.40;;;;;;4897464;29;19950;-74
2022/11/20 08:18:31;;;;;;;2.85;2.13;;;18.30;57.50;;;;;;4896170;29;20582;-72
2022/11/20 08:20:56;;;;;;;5.05;2.33;;;18.30;57.60;;;;;;4893483;29;20148;-70
2022/11/20 08:23:22;;;;;;;2.83;2.05;;;18.30;57.50;;;;;;4916276;29;20127;-73
2022/11/20 08:25:50;;;;;;;7.45;2.45;;;18.30;57.50;;;;;;4916755;29;20504;-72
2022/11/20 08:28:16;;;;;;;3.75;2.40;;;18.30;57.50;;;;;;4882661;29;20519;-73
2022/11/20 08:30:41;;;;;;;5.63;2.30;;;18.30;57.40;;;;;;4914918;29;20043;-73
2022/11/20 08:33:08;;;;;;;58.08;37.08;;;18.30;57.40;;;;;;4890131;29;20098;-73
2022/11/20 08:35:38;;;;;;;13.27;8.25;;;18.30;57.50;;;;;;4866253;29;20041;-74
2022/11/20 08:38:04;;;;;;;14.60;6.93;;;18.30;57.50;;;;;;4889917;29;20059;-73
2022/11/20 08:40:31;;;;;;;15.23;6.00;;;18.40;57.60;;;;;;4922997;29;20075;-72
2022/11/20 08:42:56;;;;;;;10.48;5.63;;;18.40;57.50;;;;;;4902872;29;20437;-72
2022/11/20 08:45:22;;;;;;;12.15;6.13;;;18.40;57.50;;;;;;4921168;29;20049;-72
2022/11/20 08:47:48;;;;;;;10.00;5.00;;;18.40;57.40;;;;;;4886862;29;20056;-72
2022/11/20 08:50:15;;;;;;;9.98;5.30;;;18.40;57.40;;;;;;4896610;29;20040;-72
2022/11/20 08:52:41;;;;;;;10.07;5.30;;;18.40;57.40;;;;;;4920598;29;20036;-73
2022/11/20 08:55:07;;;;;;;9.27;4.97;;;18.30;57.30;;;;;;4898123;29;20452;-71
2022/11/20 08:57:34;;;;;;;71.50;29.20;;;18.30;57.30;;;;;;4892317;29;20062;-71
2022/11/20 09:00:00;;;;;;;30.33;13.00;;;18.30;57.50;;;;;;4899028;29;20032;-71
2022/11/20 09:02:26;;;;;;;31.90;11.95;;;18.30;57.60;;;;;;4897200;29;20390;-71
2022/11/20 09:04:53;;;;;;;21.63;11.15;;;18.40;57.80;;;;;;4878146;29;20050;-71
2022/11/20 09:07:19;;;;;;;23.25;9.77;;;18.40;57.90;;;;;;4880590;29;20063;-69
2022/11/20 09:09:44;;;;;;;20.27;9.00;;;18.40;57.90;;;;;;4893520;29;20051;-71
2022/11/20 09:12:10;;;;;;;16.35;8.57;;;18.40;57.90;;;;;;4918619;29;20044;-71
2022/11/20 09:14:35;;;;;;;17.42;8.00;;;18.40;58.00;;;;;;4919054;29;20075;-73
2022/11/20 09:17:01;;;;;;;15.25;7.63;;;18.40;57.90;;;;;;4920179;29;20051;-73
2022/11/20 09:19:27;;;;;;;13.98;7.57;;;18.40;57.90;;;;;;4895737;29;20047;-71
2022/11/20 09:21:52;;;;;;;17.60;7.53;;;18.50;57.90;;;;;;4912127;29;20035;-72
2022/11/20 09:24:18;;;;;;;13.68;7.72;;;18.50;58.00;;;;;;4922557;29;20578;-70
2022/11/20 09:26:44;;;;;;;14.63;7.15;;;18.40;57.90;;;;;;4911856;29;20064;-69
2022/11/20 09:29:10;;;;;;;14.73;7.15;;;18.50;57.90;;;;;;4909640;29;20194;-68
2022/11/20 09:31:36;;;;;;;11.15;7.57;;;18.50;57.90;;;;;;4925097;29;20617;-68
2022/11/20 09:34:01;;;;;;;13.13;7.15;;;18.40;57.80;;;;;;4898796;29;20065;-69
2022/11/20 09:36:28;;;;;;;14.15;6.80;;;18.50;57.80;;;;;;4914522;29;20090;-67
2022/11/20 09:38:56;;;;;;;16.25;7.20;;;18.40;57.70;;;;;;4898797;29;20574;-68
2022/11/20 09:41:39;;;;;;;12.65;7.22;;;18.40;57.70;;;;;;4896888;29;20115;-68
2022/11/20 09:44:24;;;;;;;10.57;6.95;;;18.40;57.60;;;;;;4907375;29;20043;-68
2022/11/20 09:47:01;;;;;;;12.15;6.35;;;18.50;57.70;;;;;;4904770;29;20044;-69
2022/11/20 09:50:21;;;;;;;13.77;7.18;;;18.50;57.60;;;;;;4933173;29;20151;-72
2022/11/20 09:53:05;;;;;;;33.40;12.10;;;18.50;57.50;;;;;;4854965;29;20504;-71
2022/11/20 09:55:31;;;;;;;25.60;10.38;;;18.50;57.50;;;;;;4893932;29;20047;-70
2022/11/20 09:57:59;;;;;;;22.70;8.77;;;18.50;57.50;;;;;;4907739;29;20033;-70
2022/11/20 10:00:26;;;;;;;53.58;13.45;;;18.50;57.50;;;;;;4900011;29;20051;-69
2022/11/20 10:03:38;;;;;;;33.85;11.82;;;18.50;57.40;;;;;;4916240;29;20052;-70
2022/11/20 10:06:08;;;;;;;32.30;10.45;;;18.50;57.30;;;;;;4891078;29;20070;-70
2022/11/20 10:08:59;;;;;;;32.25;10.30;;;18.50;57.50;;;;;;4897344;29;20055;-71
2022/11/20 10:11:46;;;;;;;32.20;10.00;;;18.50;57.50;;;;;;4906824;29;20063;-70
2022/11/20 10:14:20;;;;;;;32.03;9.85;;;18.50;57.40;;;;;;4921644;29;20543;-71
2022/11/20 10:17:31;;;;;;;30.42;9.63;;;18.50;57.40;;;;;;4920346;29;20135;-70
2022/11/20 10:20:03;;;;;;;20.95;8.45;;;18.50;57.30;;;;;;4875406;29;20066;-70
2022/11/20 10:22:54;;;;;;;22.90;8.15;;;18.50;57.30;;;;;;4895832;29;20110;-70
2022/11/20 10:25:23;;;;;;;29.00;8.85;;;18.40;57.20;;;;;;4893398;29;20402;-70
2022/11/20 10:28:16;;;;;;;26.05;8.18;;;18.40;57.20;;;;;;4886015;29;20048;-70
2022/11/20 10:30:45;;;;;;;22.65;8.38;;;18.40;57.10;;;;;;4914871;29;20089;-70
2022/11/20 10:33:23;;;;;;;23.25;8.45;;;18.40;57.20;;;;;;4918902;29;20454;-70
2022/11/20 10:36:28;;;;;;;26.65;8.40;;;18.40;57.10;;;;;;4900996;29;20075;-71
2022/11/20 10:39:01;;;;;;;20.38;8.23;;;18.40;57.10;;;;;;4811687;29;20097;-71
2022/11/20 10:41:38;;;;;;;23.75;7.80;;;18.50;57.10;;;;;;4906726;29;20067;-69
2022/11/20 10:47:16;;;;;;;18.23;7.60;;;18.40;57.00;;;;;;4887823;29;20051;-71
2022/11/20 10:49:46;;;;;;;23.58;8.02;;;18.40;57.00;;;;;;4896593;29;20051;-70
2022/11/20 10:52:42;;;;;;;26.20;8.02;;;18.50;57.10;;;;;;4892783;29;20581;-71
2022/11/20 10:55:50;;;;;;;15.02;6.95;;;18.40;56.90;;;;;;4914300;29;20047;-71
2022/11/20 10:58:34;;;;;;;20.95;7.25;;;18.50;56.90;;;;;;4878111;29;20061;-70
2022/11/20 11:01:05;;;;;;;15.82;6.70;;;18.40;56.90;;;;;;4895677;29;20068;-70
2022/11/20 11:03:32;;;;;;;18.38;7.03;;;18.40;56.90;;;;;;4877746;29;20056;-69
2022/11/20 11:06:08;;;;;;;15.68;6.45;;;18.40;56.90;;;;;;4884449;29;20528;-70
2022/11/20 11:08:38;;;;;;;19.75;7.05;;;18.50;56.80;;;;;;4885802;29;20067;-71
2022/11/20 11:11:25;;;;;;;16.48;6.30;;;18.50;56.80;;;;;;4889228;29;20041;-73
2022/11/20 11:13:51;;;;;;;18.50;6.38;;;18.50;56.70;;;;;;4893029;29;20174;-71
2022/11/20 11:16:24;;;;;;;15.27;5.90;;;18.50;56.80;;;;;;4921258;29;20046;-71
2022/11/20 11:18:51;;;;;;;14.52;6.30;;;18.40;56.70;;;;;;4915024;29;20051;-71
2022/11/20 11:21:26;;;;;;;12.88;5.72;;;18.40;56.70;;;;;;4898897;29;20448;-70
2022/11/20 11:24:03;;;;;;;12.45;5.85;;;18.40;56.60;;;;;;4918933;29;20074;-71
2022/11/20 11:26:29;;;;;;;23.15;6.60;;;18.40;56.60;;;;;;4924535;29;20044;-70
2022/11/20 11:29:03;;;;;;;14.65;5.70;;;18.40;56.70;;;;;;4917917;29;20126;-71
2022/11/20 11:31:34;;;;;;;17.58;6.40;;;18.40;57.00;;;;;;4900779;29;20403;-71
2022/11/20 11:34:10;;;;;;;15.05;5.70;;;18.50;57.30;;;;;;4886975;29;20494;-71
2022/11/20 11:36:36;;;;;;;17.95;6.28;;;18.50;57.20;;;;;;4904092;29;20044;-69
2022/11/20 11:39:04;;;;;;;14.70;6.70;;;18.40;57.20;;;;;;4920550;29;20134;-71
2022/11/20 11:41:37;;;;;;;14.88;5.93;;;18.40;57.20;;;;;;4893105;29;20466;-71
2022/11/20 11:47:32;;;;;;;15.80;5.75;;;18.50;57.20;;;;;;4916802;29;20044;-70
2022/11/20 11:50:24;;;;;;;13.82;5.22;;;18.50;57.20;;;;;;4921525;29;20044;-70
2022/11/20 11:53:09;;;;;;;11.13;5.43;;;18.50;57.10;;;;;;4893434;29;20083;-71
2022/11/20 11:56:05;;;;;;;12.75;4.93;;;18.40;56.90;;;;;;4902518;29;20078;-71
2022/11/20 11:58:43;;;;;;;13.15;5.03;;;18.40;56.70;;;;;;4893810;29;20076;-72
2022/11/20 12:01:32;;;;;;;15.35;5.30;;;18.50;56.80;;;;;;4918529;29;20036;-70
2022/11/20 12:04:29;;;;;;;12.68;4.90;;;18.50;56.60;;;;;;4883162;29;20048;-70
2022/11/20 12:07:08;;;;;;;15.13;5.30;;;18.40;56.60;;;;;;4909126;29;20062;-71
2022/11/20 12:09:47;;;;;;;18.67;5.07;;;18.40;56.60;;;;;;4904608;29;20111;-71
2022/11/20 12:12:20;;;;;;;14.43;5.50;;;18.50;56.60;;;;;;4899830;29;20106;-71
2022/11/20 12:14:52;;;;;;;13.02;4.82;;;18.50;56.60;;;;;;4916568;29;20059;-71
2022/11/20 12:17:18;;;;;;;15.63;5.00;;;18.40;56.50;;;;;;4899475;29;20050;-70
2022/11/20 12:19:43;;;;;;;14.63;5.07;;;18.50;56.50;;;;;;4900455;29;20056;-70
2022/11/20 12:22:31;;;;;;;12.35;4.72;;;18.40;56.40;;;;;;4897599;29;20038;-71
2022/11/20 12:25:17;;;;;;;10.73;4.60;;;18.50;56.20;;;;;;4894938;29;20134;-70
2022/11/20 12:27:47;;;;;;;7.78;4.05;;;18.50;56.20;;;;;;4916052;29;20083;-71
2022/11/20 12:30:16;;;;;;;10.13;4.57;;;18.50;56.10;;;;;;4918382;29;20044;-70
2022/11/20 12:32:48;;;;;;;;;;;18.50;56.00;;;;;;4917630;29;20055;-72
2022/11/20 12:35:29;;;;;;;11.25;4.60;;;18.60;55.90;;;;;;4891086;29;20402;-71
2022/11/20 12:38:20;;;;;;;10.65;4.50;;;18.60;55.90;;;;;;4897208;29;20075;-71
2022/11/20 12:41:04;;;;;;;15.88;4.28;;;18.70;55.80;;;;;;4897763;29;20056;-70
2022/11/20 12:46:47;;;;;;;14.75;4.55;;;18.70;54.80;;;;;;4899461;29;20048;-71
2022/11/20 12:49:16;;;;;;;12.73;4.32;;;18.80;54.80;;;;;;4903938;29;20051;-71
2022/11/20 12:51:51;;;;;;;12.57;4.75;;;18.80;54.80;;;;;;4901549;29;20147;-72
2022/11/20 12:54:38;;;;;;;13.43;4.10;;;18.80;54.90;;;;;;4922931;29;20055;-71
2022/11/20 12:57:29;;;;;;;13.13;3.83;;;18.80;54.90;;;;;;4894234;29;20044;-71
2022/11/20 13:00:19;;;;;;;10.30;3.80;;;18.90;55.00;;;;;;4896552;29;20442;-72
2022/11/20 13:03:16;;;;;;;10.85;4.32;;;18.90;54.80;;;;;;4908942;29;20040;-70
2022/11/20 13:06:06;;;;;;;11.50;3.93;;;18.80;54.80;;;;;;4920160;29;20420;-71
2022/11/20 13:08:38;;;;;;;7.97;3.90;;;18.90;55.00;;;;;;4862526;29;20376;-71
2022/11/20 13:11:27;;;;;;;8.30;3.85;;;18.90;54.90;;;;;;4899943;29;20048;-72
2022/11/20 13:14:32;;;;;;;11.38;3.67;;;18.90;54.80;;;;;;4894477;29;20076;-71